createdAt,value
2019-02-18T00:00:42.996Z,99.90
2019-02-18T00:01:55.001Z,99.90
2019-02-18T00:02:59.716Z,99.90
2019-02-18T00:04:04.671Z,99.90
2019-02-18T00:05:09.800Z,99.90
2019-02-18T00:06:14.654Z,99.90
2019-02-18T00:07:19.692Z,99.90
2019-02-18T00:08:24.669Z,99.90
2019-02-18T00:09:29.581Z,99.90
2019-02-18T00:10:34.817Z,99.90
2019-02-18T00:11:39.920Z,99.90
2019-02-18T00:12:44.844Z,99.90
2019-02-18T00:13:49.881Z,99.90
2019-02-18T00:14:54.851Z,99.90
2019-02-18T00:16:00.111Z,99.90
2019-02-18T00:17:05.160Z,99.90
2019-02-18T00:18:10.113Z,99.90
2019-02-18T00:19:15.084Z,99.90
2019-02-18T00:20:20.073Z,99.90
2019-02-18T00:21:25.048Z,99.90
2019-02-18T00:22:30.132Z,99.90
2019-02-18T00:23:35.077Z,99.90
2019-02-18T00:24:39.820Z,99.90
2019-02-18T00:25:44.970Z,99.90
2019-02-18T00:26:50.117Z,99.90
2019-02-18T00:27:54.936Z,99.90
2019-02-18T00:28:59.993Z,99.90
2019-02-18T00:30:05.293Z,99.90
2019-02-18T00:31:10.269Z,99.90
2019-02-18T00:32:15.311Z,99.90
2019-02-18T00:33:20.335Z,99.90
2019-02-18T00:34:25.188Z,99.90
2019-02-18T00:35:30.328Z,99.90
2019-02-18T00:36:35.343Z,99.90
2019-02-18T00:37:40.148Z,99.90
2019-02-18T00:38:45.121Z,99.90
2019-02-18T00:39:49.921Z,99.90
2019-02-18T00:40:54.717Z,99.90
2019-02-18T00:41:59.696Z,99.90
2019-02-18T00:43:04.630Z,99.90
2019-02-18T00:44:09.462Z,99.90
2019-02-18T00:45:14.679Z,99.90
2019-02-18T00:46:19.725Z,99.90
2019-02-18T00:47:24.504Z,99.90
2019-02-18T00:48:29.373Z,99.90
2019-02-18T00:49:34.329Z,99.90
2019-02-18T00:50:39.146Z,99.90
2019-02-18T00:51:44.182Z,99.90
2019-02-18T00:52:49.205Z,99.90
2019-02-18T00:53:53.991Z,99.90
2019-02-18T00:54:59.001Z,99.90
2019-02-18T00:56:04.103Z,99.90
2019-02-18T00:57:08.914Z,99.90
2019-02-18T00:58:13.868Z,99.90
2019-02-18T00:59:18.696Z,99.90
2019-02-18T01:00:23.484Z,99.90
2019-02-18T01:01:28.480Z,99.90
2019-02-18T01:02:33.557Z,99.90
2019-02-18T01:03:38.485Z,99.90
2019-02-18T01:04:43.302Z,99.90
2019-02-18T01:05:48.044Z,99.90
2019-02-18T01:06:52.820Z,99.90
2019-02-18T01:07:57.866Z,99.90
2019-02-18T01:09:02.798Z,99.90
2019-02-18T01:10:08.702Z,99.90
2019-02-18T01:11:13.768Z,99.90
2019-02-18T01:12:18.541Z,99.90
2019-02-18T01:13:23.391Z,99.90
2019-02-18T01:14:28.253Z,99.90
2019-02-18T01:15:33.020Z,99.90
2019-02-18T01:16:37.942Z,99.90
2019-02-18T01:17:42.812Z,99.90
2019-02-18T01:18:47.616Z,99.90
2019-02-18T01:19:52.352Z,99.90
2019-02-18T01:20:57.305Z,99.90
2019-02-18T01:22:02.224Z,99.90
2019-02-18T01:23:07.132Z,99.90
2019-02-18T01:24:12.019Z,99.90
2019-02-18T01:25:16.820Z,99.90
2019-02-18T01:26:21.905Z,99.90
2019-02-18T01:27:26.777Z,99.90
2019-02-18T01:28:31.548Z,99.90
2019-02-18T01:29:36.491Z,99.90
2019-02-18T01:30:41.352Z,99.90
2019-02-18T01:31:46.144Z,99.90
2019-02-18T01:32:51.020Z,99.90
2019-02-18T01:33:55.960Z,99.90
2019-02-18T01:35:00.714Z,99.90
2019-02-18T01:36:05.544Z,99.90
2019-02-18T01:37:10.453Z,99.90
2019-02-18T01:38:15.199Z,99.90
2019-02-18T01:39:20.084Z,99.90
2019-02-18T01:40:25.028Z,99.90
2019-02-18T01:41:29.916Z,99.90
2019-02-18T01:42:35.048Z,99.90
2019-02-18T01:43:39.980Z,99.90
2019-02-18T01:44:44.768Z,99.90
2019-02-18T01:45:49.711Z,99.90
2019-02-18T01:46:54.644Z,99.90
2019-02-18T01:47:59.390Z,99.90
2019-02-18T01:49:04.383Z,99.90
2019-02-18T01:50:12.065Z,99.90
2019-02-18T01:51:16.817Z,99.90
2019-02-18T01:52:21.576Z,99.90
2019-02-18T01:53:26.445Z,99.90
2019-02-18T01:54:31.203Z,99.90
2019-02-18T01:55:36.212Z,99.90
2019-02-18T01:56:41.120Z,99.90
2019-02-18T01:57:45.850Z,99.90
2019-02-18T01:58:50.712Z,99.90
2019-02-18T01:59:55.585Z,99.90
2019-02-18T02:01:00.316Z,99.90
2019-02-18T02:02:05.350Z,99.90
2019-02-18T02:03:10.244Z,99.90
2019-02-18T02:04:15.036Z,99.90
2019-02-18T02:05:19.999Z,99.90
2019-02-18T02:06:24.753Z,99.90
2019-02-18T02:07:29.529Z,99.90
2019-02-18T02:08:34.421Z,99.90
2019-02-18T02:09:58.117Z,99.90
2019-02-18T02:11:03.001Z,99.90
2019-02-18T02:12:07.916Z,99.90
2019-02-18T02:13:32.062Z,99.90
2019-02-18T02:14:36.945Z,99.90
2019-02-18T02:15:41.698Z,99.90
2019-02-18T02:16:46.501Z,99.90
2019-02-18T02:17:51.505Z,99.90
2019-02-18T02:18:56.243Z,99.90
2019-02-18T02:20:01.121Z,99.90
2019-02-18T02:21:06.276Z,99.90
2019-02-18T02:22:11.057Z,99.90
2019-02-18T02:23:15.900Z,99.90
2019-02-18T02:24:20.761Z,99.90
2019-02-18T02:25:25.499Z,99.90
2019-02-18T02:26:30.371Z,99.90
2019-02-18T02:27:35.260Z,99.90
2019-02-18T02:28:40.001Z,99.90
2019-02-18T02:29:44.980Z,99.90
2019-02-18T02:30:49.951Z,99.90
2019-02-18T02:31:54.689Z,99.90
2019-02-18T02:32:59.625Z,99.90
2019-02-18T02:34:04.500Z,99.90
2019-02-18T02:35:09.643Z,99.90
2019-02-18T02:36:14.560Z,99.90
2019-02-18T02:37:19.489Z,99.90
2019-02-18T02:38:24.237Z,99.90
2019-02-18T02:39:29.115Z,99.90
2019-02-18T02:40:33.941Z,99.90
2019-02-18T02:41:38.716Z,99.90
2019-02-18T02:42:43.590Z,99.90
2019-02-18T02:43:48.486Z,99.90
2019-02-18T02:44:53.233Z,99.90
2019-02-18T02:45:58.116Z,99.90
2019-02-18T02:47:03.085Z,99.90
2019-02-18T02:48:07.881Z,99.90
2019-02-18T02:49:12.893Z,99.90
2019-02-18T02:50:17.801Z,99.90
2019-02-18T02:51:22.552Z,99.90
2019-02-18T02:52:27.481Z,99.90
2019-02-18T02:53:32.338Z,99.90
2019-02-18T02:54:37.079Z,99.90
2019-02-18T02:55:41.956Z,99.90
2019-02-18T02:56:47.768Z,99.90
2019-02-18T02:57:52.549Z,99.90
2019-02-18T02:58:57.456Z,99.90
2019-02-18T03:00:02.335Z,99.90
2019-02-18T03:01:07.095Z,99.90
2019-02-18T03:02:12.118Z,99.90
2019-02-18T03:03:16.996Z,99.90
2019-02-18T03:04:21.720Z,99.90
2019-02-18T03:05:26.624Z,99.90
2019-02-18T03:06:31.519Z,99.90
2019-02-18T03:07:36.284Z,99.90
2019-02-18T03:08:41.280Z,99.90
2019-02-18T03:09:46.072Z,99.90
2019-02-18T03:10:50.812Z,99.90
2019-02-18T03:11:55.564Z,99.90
2019-02-18T03:13:00.462Z,99.90
2019-02-18T03:14:05.297Z,99.90
2019-02-18T03:15:10.367Z,99.90
2019-02-18T03:16:15.256Z,99.90
2019-02-18T03:17:20.249Z,99.90
2019-02-18T03:18:25.108Z,99.90
2019-02-18T03:19:30.038Z,99.90
2019-02-18T03:20:34.772Z,99.90
2019-02-18T03:21:39.706Z,99.90
2019-02-18T03:22:44.597Z,99.90
2019-02-18T03:23:49.349Z,99.90
2019-02-18T03:25:26.696Z,99.90
2019-02-18T03:26:31.540Z,99.90
2019-02-18T03:27:36.564Z,99.90
2019-02-18T03:29:20.968Z,99.90
2019-02-18T03:30:41.892Z,99.90
2019-02-18T03:31:46.697Z,99.90
2019-02-18T03:32:55.452Z,99.90
2019-02-18T03:34:33.696Z,99.90
2019-02-18T03:35:38.564Z,99.90
2019-02-18T03:36:43.562Z,99.90
2019-02-18T03:37:48.450Z,99.90
2019-02-18T03:38:53.314Z,99.90
2019-02-18T03:39:58.221Z,99.90
2019-02-18T03:41:03.709Z,99.90
2019-02-18T03:42:08.934Z,99.90
2019-02-18T03:43:13.683Z,99.90
2019-02-18T03:44:18.458Z,99.90
2019-02-18T03:45:23.350Z,99.90
2019-02-18T03:46:28.253Z,99.90
2019-02-18T03:47:33.005Z,99.90
2019-02-18T03:48:37.869Z,99.90
2019-02-18T03:49:42.725Z,99.90
2019-02-18T03:50:47.476Z,99.90
2019-02-18T03:51:52.350Z,99.90
2019-02-18T03:52:57.192Z,99.90
2019-02-18T03:54:02.282Z,99.90
2019-02-18T03:55:07.949Z,99.90
2019-02-18T03:56:12.739Z,99.90
2019-02-18T03:57:17.756Z,99.90
2019-02-18T03:58:22.759Z,99.90
2019-02-18T03:59:27.571Z,99.90
2019-02-18T04:00:32.581Z,99.90
2019-02-18T04:01:37.498Z,99.90
2019-02-18T04:02:42.382Z,99.90
2019-02-18T04:03:47.532Z,99.90
2019-02-18T04:04:52.445Z,99.90
2019-02-18T04:05:57.236Z,99.90
2019-02-18T04:07:01.985Z,99.90
2019-02-18T04:08:06.957Z,99.90
2019-02-18T04:09:11.769Z,99.90
2019-02-18T04:10:16.736Z,99.90
2019-02-18T04:11:21.756Z,99.90
2019-02-18T04:12:26.492Z,99.90
2019-02-18T04:13:31.395Z,99.90
2019-02-18T04:14:36.281Z,99.90
2019-02-18T04:15:41.288Z,99.90
2019-02-18T04:16:46.056Z,99.90
2019-02-18T04:17:51.090Z,99.90
2019-02-18T04:18:55.953Z,99.90
2019-02-18T04:20:00.852Z,99.90
2019-02-18T04:21:05.780Z,99.90
2019-02-18T04:22:10.535Z,99.90
2019-02-18T04:23:15.289Z,99.90
2019-02-18T04:24:20.168Z,99.90
2019-02-18T04:25:24.932Z,99.90
2019-02-18T04:26:29.948Z,99.90
2019-02-18T04:27:34.830Z,99.90
2019-02-18T04:28:39.620Z,99.90
2019-02-18T04:29:44.524Z,99.90
2019-02-18T04:30:49.413Z,99.90
2019-02-18T04:31:54.186Z,99.90
2019-02-18T04:32:59.047Z,99.90
2019-02-18T04:34:03.886Z,99.90
2019-02-18T04:35:08.772Z,99.90
2019-02-18T04:36:13.647Z,99.90
2019-02-18T04:37:18.606Z,99.90
2019-02-18T04:38:23.361Z,99.90
2019-02-18T04:39:28.188Z,99.90
2019-02-18T04:40:33.120Z,99.90
2019-02-18T04:41:37.910Z,99.90
2019-02-18T04:42:42.786Z,99.90
2019-02-18T04:43:47.664Z,99.90
2019-02-18T04:44:52.453Z,99.90
2019-02-18T04:45:57.344Z,99.90
2019-02-18T04:47:02.204Z,99.90
2019-02-18T04:48:06.984Z,99.90
2019-02-18T04:49:11.864Z,99.90
2019-02-18T04:50:16.789Z,99.90
2019-02-18T04:51:21.534Z,99.90
2019-02-18T04:52:26.496Z,99.90
2019-02-18T04:53:31.383Z,99.90
2019-02-18T04:54:36.145Z,99.90
2019-02-18T04:55:41.026Z,99.90
2019-02-18T04:56:45.916Z,99.90
2019-02-18T04:57:50.760Z,99.90
2019-02-18T04:58:55.588Z,99.90
2019-02-18T05:00:00.608Z,99.90
2019-02-18T05:01:05.397Z,99.90
2019-02-18T05:02:10.365Z,99.90
2019-02-18T05:03:15.336Z,99.90
2019-02-18T05:04:20.137Z,99.90
2019-02-18T05:05:25.107Z,99.90
2019-02-18T05:06:30.108Z,99.90
2019-02-18T05:07:34.853Z,99.90
2019-02-18T05:08:39.694Z,99.90
2019-02-18T05:09:45.012Z,99.90
2019-02-18T05:10:49.839Z,99.90
2019-02-18T05:11:54.692Z,99.90
2019-02-18T05:12:59.610Z,99.90
2019-02-18T05:14:04.355Z,99.90
2019-02-18T05:15:09.656Z,99.90
2019-02-18T05:16:14.523Z,99.90
2019-02-18T05:17:19.294Z,99.90
2019-02-18T05:18:24.221Z,99.90
2019-02-18T05:19:29.109Z,99.90
2019-02-18T05:20:33.901Z,99.90
2019-02-18T05:21:38.800Z,99.90
2019-02-18T05:22:43.588Z,99.90
2019-02-18T05:23:48.402Z,99.90
2019-02-18T05:24:53.425Z,99.90
2019-02-18T05:25:58.361Z,99.90
2019-02-18T05:27:03.117Z,99.90
2019-02-18T05:28:08.088Z,99.90
2019-02-18T05:29:13.102Z,99.90
2019-02-18T05:30:18.024Z,99.90
2019-02-18T05:31:22.990Z,99.90
2019-02-18T05:32:28.016Z,99.90
2019-02-18T05:33:32.841Z,99.90
2019-02-18T05:34:37.804Z,99.90
2019-02-18T05:35:42.828Z,99.90
2019-02-18T05:36:47.600Z,99.90
2019-02-18T05:37:52.549Z,99.90
2019-02-18T05:38:57.986Z,99.90
2019-02-18T05:40:02.919Z,99.90
2019-02-18T05:41:07.861Z,99.90
2019-02-18T05:42:12.882Z,99.90
2019-02-18T05:43:17.628Z,99.90
2019-02-18T05:44:22.736Z,99.90
2019-02-18T05:45:27.763Z,99.90
2019-02-18T05:46:32.667Z,99.90
2019-02-18T05:47:37.858Z,99.90
2019-02-18T05:48:42.796Z,99.90
2019-02-18T05:49:47.558Z,99.90
2019-02-18T05:50:52.600Z,99.90
2019-02-18T05:51:57.614Z,99.90
2019-02-18T05:53:02.360Z,99.90
2019-02-18T05:54:07.202Z,99.90
2019-02-18T05:55:12.120Z,99.90
2019-02-18T05:56:17.101Z,99.90
2019-02-18T05:57:22.852Z,99.90
2019-02-18T05:58:28.078Z,99.90
2019-02-18T05:59:35.833Z,99.90
2019-02-18T06:00:41.004Z,99.90
2019-02-18T06:01:45.736Z,99.90
2019-02-18T06:02:50.592Z,99.90
2019-02-18T06:03:55.516Z,99.90
2019-02-18T06:05:00.533Z,99.90
2019-02-18T06:06:05.815Z,99.90
2019-02-18T06:07:10.724Z,99.90
2019-02-18T06:08:15.522Z,99.90
2019-02-18T06:09:28.923Z,99.90
2019-02-18T06:10:27.005Z,99.90
2019-02-18T06:11:31.728Z,99.90
2019-02-18T06:12:36.513Z,99.90
2019-02-18T06:13:41.289Z,99.90
2019-02-18T06:14:46.069Z,99.90
2019-02-18T06:15:51.071Z,99.90
2019-02-18T06:16:56.159Z,99.90
2019-02-18T06:18:01.095Z,99.90
2019-02-18T06:19:06.311Z,99.90
2019-02-18T06:20:11.277Z,99.90
2019-02-18T06:21:16.283Z,99.90
2019-02-18T06:22:21.120Z,99.90
2019-02-18T06:23:25.899Z,99.90
2019-02-18T06:24:30.877Z,99.90
2019-02-18T06:25:36.780Z,99.90
2019-02-18T06:26:42.207Z,99.90
2019-02-18T06:27:47.265Z,99.90
2019-02-18T06:28:52.214Z,99.90
2019-02-18T06:29:57.245Z,99.90
2019-02-18T06:31:02.378Z,99.90
2019-02-18T06:32:07.517Z,99.90
2019-02-18T06:33:12.469Z,99.90
2019-02-18T06:34:17.473Z,99.90
2019-02-18T06:35:22.464Z,99.90
2019-02-18T06:36:27.381Z,99.90
2019-02-18T06:37:32.344Z,99.90
2019-02-18T06:38:37.467Z,99.90
2019-02-18T06:39:42.325Z,99.90
2019-02-18T06:40:47.241Z,99.90
2019-02-18T06:41:52.283Z,99.90
2019-02-18T06:42:57.225Z,99.90
2019-02-18T06:44:02.126Z,99.90
2019-02-18T06:45:35.712Z,99.90
2019-02-18T06:46:52.152Z,99.90
2019-02-18T06:47:58.178Z,99.90
2019-02-18T06:49:21.965Z,99.90
2019-02-18T06:50:27.061Z,99.90
2019-02-18T06:51:32.171Z,99.90
2019-02-18T06:52:37.296Z,99.90
2019-02-18T06:53:42.185Z,99.90
2019-02-18T06:54:47.022Z,99.90
2019-02-18T06:55:51.789Z,99.90
2019-02-18T06:57:18.608Z,99.90
2019-02-18T06:58:40.194Z,99.90
2019-02-18T07:00:07.459Z,99.90
2019-02-18T07:01:21.993Z,99.90
2019-02-18T07:02:51.888Z,99.90
2019-02-18T07:04:21.903Z,99.90
2019-02-18T07:05:48.249Z,99.90
2019-02-18T07:07:17.670Z,99.90
2019-02-18T07:08:44.233Z,99.90
2019-02-18T07:10:07.958Z,99.90
2019-02-18T07:11:34.553Z,99.90
2019-02-18T07:12:43.404Z,99.90
2019-02-18T07:13:48.279Z,99.90
2019-02-18T07:14:53.161Z,99.90
2019-02-18T07:15:58.333Z,99.90
2019-02-18T07:17:03.504Z,99.90
2019-02-18T07:18:08.237Z,99.90
2019-02-18T07:19:13.149Z,99.90
2019-02-18T07:20:18.156Z,99.90
2019-02-18T07:21:22.948Z,99.90
2019-02-18T07:22:28.152Z,99.90
2019-02-18T07:23:33.053Z,99.90
2019-02-18T07:24:38.080Z,99.90
2019-02-18T07:25:43.196Z,99.90
2019-02-18T07:26:48.262Z,99.90
2019-02-18T07:27:53.332Z,99.90
2019-02-18T07:28:58.392Z,99.90
2019-02-18T07:30:03.191Z,99.90
2019-02-18T07:31:08.289Z,99.90
2019-02-18T07:32:13.319Z,99.90
2019-02-18T07:33:18.127Z,99.90
2019-02-18T07:34:23.184Z,99.90
2019-02-18T07:35:28.258Z,99.90
2019-02-18T07:36:34.999Z,99.90
2019-02-18T07:37:39.648Z,99.90
2019-02-18T07:38:44.596Z,99.90
2019-02-18T07:39:49.417Z,99.90
2019-02-18T07:40:54.417Z,99.90
2019-02-18T07:41:59.394Z,99.90
2019-02-18T07:43:04.244Z,99.90
2019-02-18T07:44:09.304Z,99.90
2019-02-18T07:45:14.315Z,99.90
2019-02-18T07:46:19.230Z,99.90
2019-02-18T07:47:24.073Z,99.90
2019-02-18T07:48:29.152Z,99.90
2019-02-18T07:49:33.984Z,99.90
2019-02-18T07:50:39.101Z,99.90
2019-02-18T07:51:44.280Z,99.90
2019-02-18T07:52:49.061Z,99.90
2019-02-18T07:53:54.063Z,99.90
2019-02-18T07:54:59.000Z,99.90
2019-02-18T07:56:03.952Z,99.90
2019-02-18T07:57:08.909Z,99.90
2019-02-18T07:58:13.826Z,99.90
2019-02-18T07:59:18.680Z,99.90
2019-02-18T08:00:23.620Z,99.90
2019-02-18T08:01:28.676Z,99.90
2019-02-18T08:02:33.413Z,99.90
2019-02-18T08:03:38.353Z,99.90
2019-02-18T08:04:43.409Z,99.90
2019-02-18T08:05:48.200Z,99.90
2019-02-18T08:06:53.336Z,99.90
2019-02-18T08:07:58.421Z,99.90
2019-02-18T08:09:04.897Z,99.90
2019-02-18T08:10:12.426Z,99.90
2019-02-18T08:11:17.255Z,99.90
2019-02-18T08:12:22.468Z,99.90
2019-02-18T08:13:27.463Z,99.90
2019-02-18T08:14:32.302Z,99.90
2019-02-18T08:15:37.345Z,99.90
2019-02-18T08:16:42.243Z,99.90
2019-02-18T08:17:47.177Z,99.90
2019-02-18T08:18:52.049Z,99.90
2019-02-18T08:19:57.114Z,99.90
2019-02-18T08:21:04.797Z,99.90
2019-02-18T08:22:10.244Z,99.90
2019-02-18T08:23:15.187Z,99.90
2019-02-18T08:24:20.205Z,99.90
2019-02-18T08:25:25.381Z,99.90
2019-02-18T08:26:30.173Z,99.90
2019-02-18T08:27:35.280Z,99.90
2019-02-18T08:28:40.437Z,99.90
2019-02-18T08:29:45.402Z,99.90
2019-02-18T08:30:50.332Z,99.90
2019-02-18T08:31:55.491Z,99.90
2019-02-18T08:33:00.524Z,99.90
2019-02-18T08:34:05.774Z,99.90
2019-02-18T08:35:10.577Z,99.90
2019-02-18T08:36:15.755Z,99.90
2019-02-18T08:37:20.751Z,99.90
2019-02-18T08:38:25.667Z,99.90
2019-02-18T08:39:30.541Z,99.90
2019-02-18T08:40:35.421Z,99.90
2019-02-18T08:41:40.313Z,99.90
2019-02-18T08:42:45.166Z,99.90
2019-02-18T08:43:49.985Z,99.90
2019-02-18T08:44:54.841Z,99.90
2019-02-18T08:45:59.789Z,99.90
2019-02-18T08:47:04.646Z,99.90
2019-02-18T08:48:09.484Z,99.90
2019-02-18T08:49:14.327Z,99.90
2019-02-18T08:50:19.285Z,99.90
2019-02-18T08:51:24.171Z,99.90
2019-02-18T08:52:28.965Z,99.90
2019-02-18T08:53:33.885Z,99.90
2019-02-18T08:54:38.896Z,99.90
2019-02-18T08:55:43.842Z,99.90
2019-02-18T08:56:48.763Z,99.90
2019-02-18T08:57:53.656Z,99.90
2019-02-18T08:58:58.717Z,99.90
2019-02-18T09:00:03.568Z,99.90
2019-02-18T09:01:08.476Z,99.90
2019-02-18T09:02:13.420Z,99.90
2019-02-18T09:03:18.494Z,99.90
2019-02-18T09:04:23.411Z,99.90
2019-02-18T09:05:28.144Z,99.90
2019-02-18T09:06:32.879Z,99.90
2019-02-18T09:07:37.636Z,99.90
2019-02-18T09:08:42.417Z,99.90
2019-02-18T09:09:48.079Z,99.90
2019-02-18T09:10:53.568Z,99.90
2019-02-18T09:11:59.039Z,99.90
2019-02-18T09:13:04.639Z,99.90
2019-02-18T09:14:10.081Z,99.90
2019-02-18T09:15:15.719Z,99.90
2019-02-18T09:16:21.279Z,99.90
2019-02-18T09:17:26.153Z,99.90
2019-02-18T09:18:31.098Z,99.90
2019-02-18T09:19:36.724Z,99.90
2019-02-18T09:20:42.582Z,99.90
2019-02-18T09:21:49.579Z,99.90
2019-02-18T09:23:11.293Z,99.90
2019-02-18T09:24:27.562Z,99.90
2019-02-18T09:25:37.379Z,99.90
2019-02-18T09:26:42.349Z,99.90
2019-02-18T09:27:47.073Z,99.90
2019-02-18T09:28:52.674Z,99.90
2019-02-18T09:29:58.275Z,99.90
2019-02-18T09:31:03.797Z,99.90
2019-02-18T09:32:08.893Z,99.90
2019-02-18T09:33:13.877Z,99.90
2019-02-18T09:34:18.938Z,99.90
2019-02-18T09:35:23.865Z,99.90
2019-02-18T09:36:28.788Z,99.90
2019-02-18T09:37:33.872Z,99.90
2019-02-18T09:38:38.847Z,99.90
2019-02-18T09:39:43.929Z,99.90
2019-02-18T09:41:55.560Z,99.90
2019-02-18T09:43:00.390Z,99.90
2019-02-18T09:44:05.271Z,99.90
2019-02-18T09:45:10.564Z,99.90
2019-02-18T09:46:15.468Z,99.90
2019-02-18T09:47:20.570Z,99.90
2019-02-18T09:48:25.649Z,99.90
2019-02-18T09:49:30.455Z,99.90
2019-02-18T09:50:35.368Z,99.90
2019-02-18T09:51:40.208Z,99.90
2019-02-18T09:52:44.989Z,99.90
2019-02-18T09:53:49.840Z,99.90
2019-02-18T09:54:54.830Z,99.90
2019-02-18T09:55:59.869Z,99.90
2019-02-18T09:57:04.920Z,99.90
2019-02-18T09:58:10.029Z,99.90
2019-02-18T09:59:15.107Z,99.90
2019-02-18T10:00:20.081Z,99.90
2019-02-18T10:01:25.002Z,99.90
2019-02-18T10:02:29.797Z,99.90
2019-02-18T10:03:34.750Z,99.90
2019-02-18T10:04:39.748Z,99.90
2019-02-18T10:05:44.639Z,99.90
2019-02-18T10:06:49.771Z,99.90
2019-02-18T10:07:54.621Z,99.90
2019-02-18T10:08:59.625Z,99.90
2019-02-18T10:10:04.931Z,99.90
2019-02-18T10:11:09.987Z,99.90
2019-02-18T10:12:18.288Z,99.90
2019-02-18T10:13:21.802Z,99.90
2019-02-18T10:14:27.039Z,99.90
2019-02-18T10:15:31.947Z,99.90
2019-02-18T10:16:37.126Z,99.90
2019-02-18T10:17:42.873Z,99.90
2019-02-18T10:18:48.078Z,99.90
2019-02-18T10:19:53.048Z,99.90
2019-02-18T10:20:58.015Z,99.90
2019-02-18T10:22:03.094Z,99.90
2019-02-18T10:23:08.125Z,99.90
2019-02-18T10:24:13.137Z,99.90
2019-02-18T10:25:18.265Z,99.90
2019-02-18T10:26:23.126Z,99.90
2019-02-18T10:27:28.156Z,99.90
2019-02-18T10:28:33.238Z,99.90
2019-02-18T10:29:38.255Z,99.90
2019-02-18T10:30:43.249Z,99.90
2019-02-18T10:31:48.028Z,99.90
2019-02-18T10:32:52.858Z,99.90
2019-02-18T10:33:57.754Z,99.90
2019-02-18T10:35:02.596Z,99.90
2019-02-18T10:36:07.312Z,99.90
2019-02-18T10:37:12.089Z,99.90
2019-02-18T10:38:16.853Z,99.90
2019-02-18T10:39:21.582Z,99.90
2019-02-18T10:40:26.310Z,99.90
2019-02-18T10:41:31.139Z,99.90
2019-02-18T10:42:35.908Z,99.90
2019-02-18T10:43:40.665Z,99.90
2019-02-18T10:44:45.407Z,99.90
2019-02-18T10:45:50.630Z,99.90
2019-02-18T10:46:55.389Z,99.90
2019-02-18T10:48:00.127Z,99.90
2019-02-18T10:49:04.963Z,99.90
2019-02-18T10:50:10.561Z,99.90
2019-02-18T10:51:15.306Z,99.90
2019-02-18T10:52:22.493Z,99.90
2019-02-18T10:53:26.593Z,99.90
2019-02-18T10:54:31.346Z,99.90
2019-02-18T10:55:36.116Z,99.90
2019-02-18T10:56:40.915Z,99.90
2019-02-18T10:57:45.691Z,99.90
2019-02-18T10:58:50.449Z,99.90
2019-02-18T10:59:55.172Z,99.90
2019-02-18T11:00:59.910Z,99.90
2019-02-18T11:02:05.023Z,99.90
2019-02-18T11:03:09.869Z,99.90
2019-02-18T11:04:15.029Z,99.90
2019-02-18T11:05:19.962Z,99.90
2019-02-18T11:06:24.718Z,99.90
2019-02-18T11:07:29.735Z,99.90
2019-02-18T11:08:34.646Z,99.90
2019-02-18T11:09:39.589Z,99.90
2019-02-18T11:10:44.663Z,99.90
2019-02-18T11:11:49.584Z,99.90
2019-02-18T11:12:54.611Z,99.90
2019-02-18T11:13:59.565Z,99.90
2019-02-18T11:15:05.003Z,99.90
2019-02-18T11:16:10.049Z,99.90
2019-02-18T11:17:15.273Z,99.90
2019-02-18T11:18:20.221Z,99.90
2019-02-18T11:19:25.316Z,99.90
2019-02-18T11:20:30.256Z,99.90
2019-02-18T11:21:35.241Z,99.90
2019-02-18T11:22:40.484Z,99.90
2019-02-18T11:23:45.530Z,99.90
2019-02-18T11:24:50.600Z,99.90
2019-02-18T11:25:55.704Z,99.90
2019-02-18T11:27:00.576Z,99.90
2019-02-18T11:28:05.668Z,99.90
2019-02-18T11:29:10.647Z,99.90
2019-02-18T11:30:15.829Z,99.90
2019-02-18T11:31:20.609Z,99.90
2019-02-18T11:32:25.756Z,99.90
2019-02-18T11:33:31.030Z,99.90
2019-02-18T11:34:39.149Z,99.90
2019-02-18T11:35:44.574Z,99.90
2019-02-18T11:36:49.587Z,99.90
2019-02-18T11:37:55.830Z,99.90
2019-02-18T11:39:00.911Z,99.90
2019-02-18T11:40:06.189Z,99.90
2019-02-18T11:41:11.146Z,99.90
2019-02-18T11:42:16.124Z,99.90
2019-02-18T11:43:21.334Z,99.90
2019-02-18T11:44:26.259Z,99.90
2019-02-18T11:45:31.189Z,99.90
2019-02-18T11:46:36.317Z,99.90
2019-02-18T11:47:41.428Z,99.90
2019-02-18T11:48:46.413Z,99.90
2019-02-18T11:49:51.586Z,99.90
2019-02-18T11:50:56.781Z,99.90
2019-02-18T11:52:02.085Z,99.90
2019-02-18T11:53:07.052Z,99.90
2019-02-18T11:54:12.234Z,99.90
2019-02-18T11:55:17.388Z,99.90
2019-02-18T11:56:22.753Z,99.60
2019-02-18T11:57:28.021Z,97.50
2019-02-18T11:58:32.887Z,95.20
2019-02-18T11:59:37.737Z,95.00
2019-02-18T12:00:42.630Z,96.10
2019-02-18T12:01:47.517Z,95.20
2019-02-18T12:03:02.493Z,94.50
2019-02-18T12:04:00.085Z,94.50
2019-02-18T12:05:05.461Z,92.70
2019-02-18T12:06:10.569Z,92.80
2019-02-18T12:07:15.592Z,92.60
2019-02-18T12:08:20.768Z,91.90
2019-02-18T12:09:25.924Z,93.00
2019-02-18T12:10:30.882Z,92.40
2019-02-18T12:11:38.401Z,90.00
2019-02-18T12:12:42.260Z,88.30
2019-02-18T12:13:47.171Z,82.40
2019-02-18T12:14:52.295Z,79.60
2019-02-18T12:15:57.484Z,80.60
2019-02-18T12:17:02.693Z,82.10
2019-02-18T12:18:07.878Z,83.10
2019-02-18T12:19:12.807Z,81.20
2019-02-18T12:20:17.811Z,79.40
2019-02-18T12:21:22.648Z,82.70
2019-02-18T12:22:27.507Z,86.70
2019-02-18T12:23:33.721Z,90.00
2019-02-18T12:24:39.264Z,91.40
2019-02-18T12:25:44.468Z,91.60
2019-02-18T12:26:51.827Z,93.60
2019-02-18T12:27:56.885Z,95.20
2019-02-18T12:29:02.285Z,98.40
2019-02-18T12:30:09.030Z,99.90
2019-02-18T12:31:14.135Z,99.90
2019-02-18T12:32:19.181Z,99.90
2019-02-18T12:33:24.180Z,99.90
2019-02-18T12:34:29.052Z,99.90
2019-02-18T12:35:34.242Z,99.90
2019-02-18T12:36:40.186Z,99.90
2019-02-18T12:37:55.020Z,99.90
2019-02-18T12:38:52.496Z,99.90
2019-02-18T12:39:57.573Z,99.90
2019-02-18T12:41:02.595Z,99.90
2019-02-18T12:42:07.652Z,99.90
2019-02-18T12:43:12.801Z,99.90
2019-02-18T12:44:17.805Z,99.90
2019-02-18T12:45:22.996Z,99.90
2019-02-18T12:46:28.060Z,99.90
2019-02-18T12:47:33.117Z,99.90
2019-02-18T12:48:38.402Z,99.90
2019-02-18T12:49:43.338Z,99.90
2019-02-18T12:50:48.189Z,99.90
2019-02-18T12:51:53.068Z,99.90
2019-02-18T12:52:57.925Z,99.90
2019-02-18T12:54:05.285Z,99.90
2019-02-18T12:55:09.837Z,99.90
2019-02-18T12:56:15.132Z,99.90
2019-02-18T12:57:20.563Z,99.90
2019-02-18T12:58:25.717Z,99.90
2019-02-18T12:59:31.639Z,99.90
2019-02-18T13:00:38.184Z,99.90
2019-02-18T13:01:43.257Z,99.90
2019-02-18T13:02:48.203Z,99.90
2019-02-18T13:03:53.217Z,99.90
2019-02-18T13:04:58.187Z,99.90
2019-02-18T13:06:03.269Z,99.90
2019-02-18T13:07:08.477Z,99.90
2019-02-18T13:08:13.893Z,99.90
2019-02-18T13:09:18.825Z,99.90
2019-02-18T13:10:34.457Z,99.90
2019-02-18T13:11:30.750Z,99.90
2019-02-18T13:12:35.928Z,99.90
2019-02-18T13:13:41.679Z,99.90
2019-02-18T13:14:47.207Z,99.90
2019-02-18T13:15:52.407Z,99.90
2019-02-18T13:16:57.786Z,99.90
2019-02-18T13:19:08.098Z,99.90
2019-02-18T13:20:13.072Z,99.90
2019-02-18T13:21:18.168Z,99.90
2019-02-18T13:22:23.272Z,99.90
2019-02-18T13:23:28.162Z,99.90
2019-02-18T13:24:33.155Z,99.90
2019-02-18T13:25:38.036Z,99.90
2019-02-18T13:26:42.928Z,99.90
2019-02-18T13:27:47.757Z,99.90
2019-02-18T13:28:52.736Z,99.90
2019-02-18T13:29:57.926Z,99.90
2019-02-18T13:31:03.365Z,99.90
2019-02-18T13:32:08.594Z,99.90
2019-02-18T13:33:13.932Z,99.90
2019-02-18T13:34:18.901Z,99.90
2019-02-18T13:35:24.191Z,99.90
2019-02-18T13:36:29.295Z,99.90
2019-02-18T13:37:34.412Z,99.90
2019-02-18T13:38:39.539Z,99.90
2019-02-18T13:39:45.256Z,99.90
2019-02-18T13:40:50.381Z,99.90
2019-02-18T13:41:55.338Z,99.90
2019-02-18T13:43:00.325Z,99.90
2019-02-18T13:44:05.385Z,99.90
2019-02-18T13:45:10.347Z,99.90
2019-02-18T13:46:15.245Z,99.90
2019-02-18T13:47:20.102Z,99.90
2019-02-18T13:48:24.866Z,99.90
2019-02-18T13:49:29.957Z,99.90
2019-02-18T13:50:35.179Z,99.90
2019-02-18T13:51:40.227Z,99.90
2019-02-18T13:52:45.060Z,99.90
2019-02-18T13:53:49.787Z,99.90
2019-02-18T13:54:54.581Z,99.90
2019-02-18T13:55:59.490Z,99.90
2019-02-18T13:57:09.811Z,99.90
2019-02-18T13:58:10.809Z,99.90
2019-02-18T13:59:15.800Z,99.90
2019-02-18T14:00:21.621Z,99.90
2019-02-18T14:01:26.435Z,99.90
2019-02-18T14:02:31.231Z,99.90
2019-02-18T14:03:36.154Z,99.90
2019-02-18T14:04:41.052Z,99.90
2019-02-18T14:05:45.830Z,99.90
2019-02-18T14:06:50.581Z,99.90
2019-02-18T14:07:55.315Z,99.90